sensor_id;sensor_type;location;lat;lon;timestamp;P1;durP1;ratioP1;P2;durP2;ratioP2
15342;SDS011;7771;48.478;8.936;2022-12-18T00:02:04;49.93;;;19.40;;
15342;SDS011;7771;48.478;8.936;2022-12-18T00:04:31;58.97;;;23.07;;
15342;SDS011;7771;48.478;8.936;2022-12-18T00:06:59;64.67;;;22.87;;
15342;SDS011;7771;48.478;8.936;2022-12-18T00:09:25;64.80;;;24.53;;
15342;SDS011;7771;48.478;8.936;2022-12-18T00:11:52;55.00;;;23.77;;
15342;SDS011;7771;48.478;8.936;2022-12-18T00:14:19;62.40;;;22.97;;
15342;SDS011;7771;48.478;8.936;2022-12-18T00:16:46;53.20;;;23.10;;
15342;SDS011;7771;48.478;8.936;2022-12-18T00:19:13;59.33;;;23.00;;
15342;SDS011;7771;48.478;8.936;2022-12-18T00:21:39;56.23;;;23.13;;
15342;SDS011;7771;48.478;8.936;2022-12-18T00:24:06;65.37;;;24.03;;
15342;SDS011;7771;48.478;8.936;2022-12-18T00:26:34;57.73;;;24.90;;
15342;SDS011;7771;48.478;8.936;2022-12-18T00:29:03;67.87;;;24.83;;
15342;SDS011;7771;48.478;8.936;2022-12-18T00:31:29;63.20;;;23.10;;
15342;SDS011;7771;48.478;8.936;2022-12-18T00:33:56;56.60;;;23.20;;
15342;SDS011;7771;48.478;8.936;2022-12-18T00:36:24;51.93;;;22.33;;
15342;SDS011;7771;48.478;8.936;2022-12-18T00:38:49;70.90;;;24.63;;
15342;SDS011;7771;48.478;8.936;2022-12-18T00:41:17;70.60;;;26.53;;
15342;SDS011;7771;48.478;8.936;2022-12-18T00:43:43;69.33;;;23.87;;
15342;SDS011;7771;48.478;8.936;2022-12-18T00:46:10;78.53;;;26.17;;
15342;SDS011;7771;48.478;8.936;2022-12-18T00:48:36;73.10;;;25.00;;
15342;SDS011;7771;48.478;8.936;2022-12-18T00:51:03;67.13;;;24.83;;
15342;SDS011;7771;48.478;8.936;2022-12-18T00:53:30;73.00;;;25.27;;
15342;SDS011;7771;48.478;8.936;2022-12-18T00:55:58;68.13;;;25.97;;
15342;SDS011;7771;48.478;8.936;2022-12-18T00:58:25;66.40;;;23.10;;
15342;SDS011;7771;48.478;8.936;2022-12-18T01:00:51;61.20;;;23.53;;
15342;SDS011;7771;48.478;8.936;2022-12-18T01:03:18;65.13;;;22.03;;
15342;SDS011;7771;48.478;8.936;2022-12-18T01:05:46;55.13;;;21.80;;
15342;SDS011;7771;48.478;8.936;2022-12-18T01:08:13;57.03;;;22.20;;
15342;SDS011;7771;48.478;8.936;2022-12-18T01:10:40;52.70;;;21.57;;
15342;SDS011;7771;48.478;8.936;2022-12-18T01:13:07;56.57;;;21.90;;
15342;SDS011;7771;48.478;8.936;2022-12-18T01:15:33;59.13;;;22.60;;
15342;SDS011;7771;48.478;8.936;2022-12-18T01:18:00;61.67;;;24.00;;
15342;SDS011;7771;48.478;8.936;2022-12-18T01:20:27;53.87;;;21.83;;
15342;SDS011;7771;48.478;8.936;2022-12-18T01:22:53;56.43;;;22.10;;
15342;SDS011;7771;48.478;8.936;2022-12-18T01:25:20;61.83;;;24.03;;
15342;SDS011;7771;48.478;8.936;2022-12-18T01:27:48;55.87;;;22.97;;
15342;SDS011;7771;48.478;8.936;2022-12-18T01:30:14;63.03;;;23.93;;
15342;SDS011;7771;48.478;8.936;2022-12-18T01:32:42;56.30;;;22.87;;
15342;SDS011;7771;48.478;8.936;2022-12-18T01:35:10;56.27;;;23.10;;
15342;SDS011;7771;48.478;8.936;2022-12-18T01:37:36;48.20;;;21.53;;
15342;SDS011;7771;48.478;8.936;2022-12-18T01:40:04;50.13;;;23.53;;
15342;SDS011;7771;48.478;8.936;2022-12-18T01:42:31;50.30;;;20.83;;
15342;SDS011;7771;48.478;8.936;2022-12-18T01:45:00;42.10;;;20.67;;
15342;SDS011;7771;48.478;8.936;2022-12-18T01:47:47;43.10;;;20.43;;
15342;SDS011;7771;48.478;8.936;2022-12-18T01:50:15;46.40;;;22.23;;
15342;SDS011;7771;48.478;8.936;2022-12-18T01:52:43;46.50;;;21.03;;
15342;SDS011;7771;48.478;8.936;2022-12-18T01:55:09;57.17;;;21.67;;
15342;SDS011;7771;48.478;8.936;2022-12-18T01:57:37;47.63;;;20.77;;
15342;SDS011;7771;48.478;8.936;2022-12-18T02:00:06;51.50;;;23.83;;
15342;SDS011;7771;48.478;8.936;2022-12-18T02:05:07;56.67;;;23.13;;
15342;SDS011;7771;48.478;8.936;2022-12-18T02:10:20;50.43;;;21.87;;
15342;SDS011;7771;48.478;8.936;2022-12-18T02:13:00;53.47;;;22.53;;
15342;SDS011;7771;48.478;8.936;2022-12-18T02:15:32;48.17;;;22.13;;
15342;SDS011;7771;48.478;8.936;2022-12-18T02:17:58;47.10;;;20.73;;
15342;SDS011;7771;48.478;8.936;2022-12-18T02:20:28;49.83;;;21.70;;
15342;SDS011;7771;48.478;8.936;2022-12-18T02:23:08;52.17;;;20.50;;
15342;SDS011;7771;48.478;8.936;2022-12-18T02:28:18;46.73;;;22.07;;
15342;SDS011;7771;48.478;8.936;2022-12-18T02:30:46;56.43;;;22.10;;
15342;SDS011;7771;48.478;8.936;2022-12-18T02:33:12;50.93;;;20.13;;
15342;SDS011;7771;48.478;8.936;2022-12-18T02:35:38;49.67;;;20.50;;
15342;SDS011;7771;48.478;8.936;2022-12-18T02:38:06;46.47;;;21.20;;
15342;SDS011;7771;48.478;8.936;2022-12-18T02:40:33;48.47;;;21.07;;
15342;SDS011;7771;48.478;8.936;2022-12-18T02:43:07;39.13;;;19.67;;
15342;SDS011;7771;48.478;8.936;2022-12-18T02:45:34;50.70;;;21.07;;
15342;SDS011;7771;48.478;8.936;2022-12-18T02:48:02;48.13;;;21.43;;
15342;SDS011;7771;48.478;8.936;2022-12-18T02:50:31;47.10;;;20.43;;
15342;SDS011;7771;48.478;8.936;2022-12-18T02:55:48;47.67;;;20.83;;
15342;SDS011;7771;48.478;8.936;2022-12-18T02:58:14;48.03;;;19.40;;
15342;SDS011;7771;48.478;8.936;2022-12-18T03:00:50;43.67;;;19.97;;
15342;SDS011;7771;48.478;8.936;2022-12-18T03:03:23;44.40;;;20.17;;
15342;SDS011;7771;48.478;8.936;2022-12-18T03:05:50;40.03;;;19.00;;
15342;SDS011;7771;48.478;8.936;2022-12-18T03:08:20;44.07;;;18.07;;
15342;SDS011;7771;48.478;8.936;2022-12-18T03:10:49;48.37;;;19.63;;
15342;SDS011;7771;48.478;8.936;2022-12-18T03:13:15;46.23;;;19.87;;
15342;SDS011;7771;48.478;8.936;2022-12-18T03:15:45;43.53;;;19.37;;
15342;SDS011;7771;48.478;8.936;2022-12-18T03:18:12;49.00;;;20.50;;
15342;SDS011;7771;48.478;8.936;2022-12-18T03:20:37;52.07;;;20.80;;
15342;SDS011;7771;48.478;8.936;2022-12-18T03:23:08;46.00;;;21.17;;
15342;SDS011;7771;48.478;8.936;2022-12-18T03:25:33;59.60;;;21.87;;
15342;SDS011;7771;48.478;8.936;2022-12-18T03:28:01;53.60;;;22.53;;
15342;SDS011;7771;48.478;8.936;2022-12-18T03:30:28;47.80;;;20.97;;
15342;SDS011;7771;48.478;8.936;2022-12-18T03:32:58;52.67;;;23.63;;
15342;SDS011;7771;48.478;8.936;2022-12-18T03:35:39;53.10;;;21.90;;
15342;SDS011;7771;48.478;8.936;2022-12-18T03:38:05;58.33;;;22.27;;
15342;SDS011;7771;48.478;8.936;2022-12-18T03:40:41;56.10;;;26.10;;
15342;SDS011;7771;48.478;8.936;2022-12-18T03:43:16;51.73;;;22.70;;
15342;SDS011;7771;48.478;8.936;2022-12-18T03:45:43;55.00;;;21.67;;
15342;SDS011;7771;48.478;8.936;2022-12-18T03:48:17;49.57;;;22.40;;
15342;SDS011;7771;48.478;8.936;2022-12-18T03:50:48;61.50;;;25.13;;
15342;SDS011;7771;48.478;8.936;2022-12-18T03:53:21;57.47;;;25.27;;
15342;SDS011;7771;48.478;8.936;2022-12-18T03:55:51;54.03;;;22.33;;
15342;SDS011;7771;48.478;8.936;2022-12-18T03:58:19;68.70;;;23.63;;
15342;SDS011;7771;48.478;8.936;2022-12-18T04:00:44;59.10;;;23.87;;
15342;SDS011;7771;48.478;8.936;2022-12-18T04:03:11;50.00;;;22.07;;
15342;SDS011;7771;48.478;8.936;2022-12-18T04:05:37;58.10;;;24.50;;
15342;SDS011;7771;48.478;8.936;2022-12-18T04:08:05;65.70;;;23.40;;
15342;SDS011;7771;48.478;8.936;2022-12-18T04:10:31;63.57;;;24.73;;
15342;SDS011;7771;48.478;8.936;2022-12-18T04:12:58;51.73;;;22.80;;
15342;SDS011;7771;48.478;8.936;2022-12-18T04:15:25;55.90;;;23.20;;
15342;SDS011;7771;48.478;8.936;2022-12-18T04:17:52;56.30;;;21.43;;
15342;SDS011;7771;48.478;8.936;2022-12-18T04:20:19;57.30;;;21.00;;
15342;SDS011;7771;48.478;8.936;2022-12-18T04:22:46;60.80;;;23.80;;
15342;SDS011;7771;48.478;8.936;2022-12-18T04:25:13;58.60;;;22.77;;
15342;SDS011;7771;48.478;8.936;2022-12-18T04:27:39;57.60;;;21.40;;
15342;SDS011;7771;48.478;8.936;2022-12-18T04:30:06;56.60;;;19.10;;
15342;SDS011;7771;48.478;8.936;2022-12-18T04:32:33;55.30;;;22.33;;
15342;SDS011;7771;48.478;8.936;2022-12-18T04:35:00;62.23;;;22.43;;
15342;SDS011;7771;48.478;8.936;2022-12-18T04:37:27;48.20;;;20.53;;
15342;SDS011;7771;48.478;8.936;2022-12-18T04:39:53;60.97;;;22.60;;
15342;SDS011;7771;48.478;8.936;2022-12-18T04:42:22;59.87;;;24.30;;
15342;SDS011;7771;48.478;8.936;2022-12-18T04:44:49;73.17;;;25.07;;
15342;SDS011;7771;48.478;8.936;2022-12-18T04:47:17;55.03;;;22.50;;
15342;SDS011;7771;48.478;8.936;2022-12-18T04:49:44;73.87;;;26.10;;
15342;SDS011;7771;48.478;8.936;2022-12-18T04:52:11;62.80;;;23.50;;
15342;SDS011;7771;48.478;8.936;2022-12-18T04:54:38;61.73;;;23.17;;
15342;SDS011;7771;48.478;8.936;2022-12-18T04:57:05;69.00;;;25.00;;
15342;SDS011;7771;48.478;8.936;2022-12-18T04:59:32;66.27;;;24.77;;
15342;SDS011;7771;48.478;8.936;2022-12-18T05:01:58;62.43;;;23.70;;
15342;SDS011;7771;48.478;8.936;2022-12-18T05:04:25;61.70;;;24.87;;
15342;SDS011;7771;48.478;8.936;2022-12-18T05:06:52;52.77;;;21.40;;
15342;SDS011;7771;48.478;8.936;2022-12-18T05:09:18;60.70;;;23.67;;
15342;SDS011;7771;48.478;8.936;2022-12-18T05:11:46;54.87;;;21.43;;
15342;SDS011;7771;48.478;8.936;2022-12-18T05:14:12;64.37;;;23.73;;
15342;SDS011;7771;48.478;8.936;2022-12-18T05:16:39;74.57;;;24.43;;
15342;SDS011;7771;48.478;8.936;2022-12-18T05:19:08;65.73;;;22.90;;
15342;SDS011;7771;48.478;8.936;2022-12-18T05:21:34;64.03;;;23.10;;
15342;SDS011;7771;48.478;8.936;2022-12-18T05:24:02;70.83;;;23.77;;
15342;SDS011;7771;48.478;8.936;2022-12-18T05:26:29;66.07;;;23.47;;
15342;SDS011;7771;48.478;8.936;2022-12-18T05:28:56;62.10;;;22.20;;
15342;SDS011;7771;48.478;8.936;2022-12-18T05:31:25;60.67;;;21.10;;
15342;SDS011;7771;48.478;8.936;2022-12-18T05:33:51;64.00;;;21.80;;
15342;SDS011;7771;48.478;8.936;2022-12-18T05:36:18;57.97;;;22.50;;
15342;SDS011;7771;48.478;8.936;2022-12-18T05:38:45;62.60;;;22.57;;
15342;SDS011;7771;48.478;8.936;2022-12-18T05:41:12;55.33;;;21.07;;
15342;SDS011;7771;48.478;8.936;2022-12-18T05:43:40;68.50;;;22.90;;
15342;SDS011;7771;48.478;8.936;2022-12-18T05:46:10;60.27;;;23.30;;
15342;SDS011;7771;48.478;8.936;2022-12-18T05:48:34;63.50;;;23.80;;
15342;SDS011;7771;48.478;8.936;2022-12-18T05:51:04;68.63;;;23.80;;
15342;SDS011;7771;48.478;8.936;2022-12-18T05:53:32;63.87;;;24.03;;
15342;SDS011;7771;48.478;8.936;2022-12-18T05:56:00;70.27;;;24.63;;
15342;SDS011;7771;48.478;8.936;2022-12-18T05:58:25;72.33;;;24.07;;
15342;SDS011;7771;48.478;8.936;2022-12-18T06:00:54;64.77;;;24.80;;
15342;SDS011;7771;48.478;8.936;2022-12-18T06:03:20;66.13;;;23.70;;
15342;SDS011;7771;48.478;8.936;2022-12-18T06:05:47;53.83;;;23.00;;
15342;SDS011;7771;48.478;8.936;2022-12-18T06:08:14;67.93;;;23.00;;
15342;SDS011;7771;48.478;8.936;2022-12-18T06:10:40;59.23;;;24.30;;
15342;SDS011;7771;48.478;8.936;2022-12-18T06:13:08;58.27;;;22.33;;
15342;SDS011;7771;48.478;8.936;2022-12-18T06:15:36;60.80;;;23.83;;
15342;SDS011;7771;48.478;8.936;2022-12-18T06:18:02;62.77;;;23.37;;
15342;SDS011;7771;48.478;8.936;2022-12-18T06:20:30;58.80;;;22.50;;
15342;SDS011;7771;48.478;8.936;2022-12-18T06:22:58;61.30;;;22.47;;
15342;SDS011;7771;48.478;8.936;2022-12-18T06:25:24;53.50;;;21.20;;
15342;SDS011;7771;48.478;8.936;2022-12-18T06:27:52;54.70;;;22.33;;
15342;SDS011;7771;48.478;8.936;2022-12-18T06:30:19;48.27;;;18.67;;
15342;SDS011;7771;48.478;8.936;2022-12-18T06:32:47;42.93;;;18.57;;
15342;SDS011;7771;48.478;8.936;2022-12-18T06:35:13;49.63;;;18.13;;
15342;SDS011;7771;48.478;8.936;2022-12-18T06:37:40;40.50;;;18.50;;
15342;SDS011;7771;48.478;8.936;2022-12-18T06:40:07;50.53;;;20.43;;
15342;SDS011;7771;48.478;8.936;2022-12-18T06:42:34;41.50;;;20.17;;
15342;SDS011;7771;48.478;8.936;2022-12-18T06:45:01;52.50;;;20.83;;
15342;SDS011;7771;48.478;8.936;2022-12-18T06:47:28;51.27;;;21.30;;
15342;SDS011;7771;48.478;8.936;2022-12-18T06:49:56;51.77;;;21.27;;
15342;SDS011;7771;48.478;8.936;2022-12-18T06:52:22;45.60;;;20.63;;
15342;SDS011;7771;48.478;8.936;2022-12-18T06:54:50;44.83;;;19.43;;
15342;SDS011;7771;48.478;8.936;2022-12-18T06:57:16;47.10;;;18.50;;
15342;SDS011;7771;48.478;8.936;2022-12-18T06:59:44;43.80;;;19.27;;
15342;SDS011;7771;48.478;8.936;2022-12-18T07:02:11;47.80;;;19.23;;
15342;SDS011;7771;48.478;8.936;2022-12-18T07:04:38;48.43;;;18.97;;
15342;SDS011;7771;48.478;8.936;2022-12-18T07:07:04;39.80;;;18.70;;
15342;SDS011;7771;48.478;8.936;2022-12-18T07:09:31;41.80;;;18.00;;
15342;SDS011;7771;48.478;8.936;2022-12-18T07:11:58;54.77;;;21.50;;
15342;SDS011;7771;48.478;8.936;2022-12-18T07:14:26;47.30;;;18.53;;
15342;SDS011;7771;48.478;8.936;2022-12-18T07:16:52;43.57;;;18.13;;
15342;SDS011;7771;48.478;8.936;2022-12-18T07:19:19;44.60;;;20.10;;
15342;SDS011;7771;48.478;8.936;2022-12-18T07:21:47;46.03;;;20.33;;
15342;SDS011;7771;48.478;8.936;2022-12-18T07:24:14;45.17;;;19.03;;
15342;SDS011;7771;48.478;8.936;2022-12-18T07:26:42;36.73;;;15.97;;
15342;SDS011;7771;48.478;8.936;2022-12-18T07:29:09;44.13;;;19.53;;
15342;SDS011;7771;48.478;8.936;2022-12-18T07:31:36;42.50;;;19.03;;
15342;SDS011;7771;48.478;8.936;2022-12-18T07:34:03;46.40;;;17.97;;
15342;SDS011;7771;48.478;8.936;2022-12-18T07:36:30;38.10;;;17.03;;
15342;SDS011;7771;48.478;8.936;2022-12-18T07:38:57;39.43;;;18.40;;
15342;SDS011;7771;48.478;8.936;2022-12-18T07:41:25;44.97;;;19.67;;
15342;SDS011;7771;48.478;8.936;2022-12-18T07:43:52;49.23;;;20.27;;
15342;SDS011;7771;48.478;8.936;2022-12-18T07:46:19;40.90;;;17.67;;
15342;SDS011;7771;48.478;8.936;2022-12-18T07:48:45;31.40;;;16.30;;
15342;SDS011;7771;48.478;8.936;2022-12-18T07:51:12;39.97;;;18.00;;
15342;SDS011;7771;48.478;8.936;2022-12-18T07:53:39;44.10;;;20.27;;
15342;SDS011;7771;48.478;8.936;2022-12-18T07:56:07;40.70;;;18.67;;
15342;SDS011;7771;48.478;8.936;2022-12-18T07:58:34;35.33;;;17.83;;
15342;SDS011;7771;48.478;8.936;2022-12-18T08:01:04;36.87;;;14.37;;
15342;SDS011;7771;48.478;8.936;2022-12-18T08:03:31;38.33;;;17.37;;
15342;SDS011;7771;48.478;8.936;2022-12-18T08:05:58;38.33;;;18.17;;
15342;SDS011;7771;48.478;8.936;2022-12-18T08:08:26;44.33;;;19.63;;
15342;SDS011;7771;48.478;8.936;2022-12-18T08:10:52;39.77;;;18.27;;
15342;SDS011;7771;48.478;8.936;2022-12-18T08:13:19;40.20;;;18.00;;
15342;SDS011;7771;48.478;8.936;2022-12-18T08:15:55;42.30;;;18.80;;
15342;SDS011;7771;48.478;8.936;2022-12-18T08:18:31;39.23;;;17.30;;
15342;SDS011;7771;48.478;8.936;2022-12-18T08:20:57;37.30;;;18.10;;
15342;SDS011;7771;48.478;8.936;2022-12-18T08:23:25;36.87;;;17.83;;
15342;SDS011;7771;48.478;8.936;2022-12-18T08:25:51;32.13;;;15.50;;
15342;SDS011;7771;48.478;8.936;2022-12-18T08:28:19;45.43;;;17.30;;
15342;SDS011;7771;48.478;8.936;2022-12-18T08:30:46;38.70;;;16.83;;
15342;SDS011;7771;48.478;8.936;2022-12-18T08:33:13;43.63;;;19.60;;
15342;SDS011;7771;48.478;8.936;2022-12-18T08:35:40;40.33;;;18.40;;
15342;SDS011;7771;48.478;8.936;2022-12-18T08:38:07;49.83;;;19.43;;
15342;SDS011;7771;48.478;8.936;2022-12-18T08:40:34;40.93;;;19.27;;
15342;SDS011;7771;48.478;8.936;2022-12-18T08:43:02;37.87;;;19.53;;
15342;SDS011;7771;48.478;8.936;2022-12-18T08:45:34;45.33;;;19.00;;
15342;SDS011;7771;48.478;8.936;2022-12-18T08:48:00;42.40;;;19.23;;
15342;SDS011;7771;48.478;8.936;2022-12-18T08:50:27;40.97;;;19.63;;
15342;SDS011;7771;48.478;8.936;2022-12-18T08:52:54;39.90;;;19.60;;
15342;SDS011;7771;48.478;8.936;2022-12-18T08:55:20;38.70;;;19.77;;
15342;SDS011;7771;48.478;8.936;2022-12-18T08:57:48;40.67;;;20.20;;
15342;SDS011;7771;48.478;8.936;2022-12-18T09:00:14;46.97;;;19.00;;
15342;SDS011;7771;48.478;8.936;2022-12-18T09:02:41;41.70;;;19.40;;
15342;SDS011;7771;48.478;8.936;2022-12-18T09:05:08;44.77;;;20.93;;
15342;SDS011;7771;48.478;8.936;2022-12-18T09:07:35;46.80;;;20.90;;
15342;SDS011;7771;48.478;8.936;2022-12-18T09:10:02;41.93;;;20.93;;
15342;SDS011;7771;48.478;8.936;2022-12-18T09:12:29;43.77;;;19.07;;
15342;SDS011;7771;48.478;8.936;2022-12-18T09:14:56;43.53;;;21.83;;
15342;SDS011;7771;48.478;8.936;2022-12-18T09:17:23;45.27;;;20.57;;
15342;SDS011;7771;48.478;8.936;2022-12-18T09:19:49;55.40;;;23.60;;
15342;SDS011;7771;48.478;8.936;2022-12-18T09:22:17;86.03;;;32.30;;
15342;SDS011;7771;48.478;8.936;2022-12-18T09:24:43;65.30;;;27.80;;
15342;SDS011;7771;48.478;8.936;2022-12-18T09:27:12;76.40;;;29.60;;
15342;SDS011;7771;48.478;8.936;2022-12-18T09:29:40;55.67;;;23.73;;
15342;SDS011;7771;48.478;8.936;2022-12-18T09:32:10;59.23;;;27.60;;
15342;SDS011;7771;48.478;8.936;2022-12-18T09:34:38;61.73;;;28.10;;
15342;SDS011;7771;48.478;8.936;2022-12-18T09:37:05;55.83;;;26.97;;
15342;SDS011;7771;48.478;8.936;2022-12-18T09:39:33;58.67;;;27.53;;
15342;SDS011;7771;48.478;8.936;2022-12-18T09:42:00;64.80;;;30.00;;
15342;SDS011;7771;48.478;8.936;2022-12-18T09:44:32;73.00;;;32.00;;
15342;SDS011;7771;48.478;8.936;2022-12-18T09:49:30;87.40;;;33.40;;
15342;SDS011;7771;48.478;8.936;2022-12-18T09:51:58;64.50;;;29.40;;
15342;SDS011;7771;48.478;8.936;2022-12-18T09:54:31;72.97;;;29.83;;
15342;SDS011;7771;48.478;8.936;2022-12-18T09:56:53;90.80;;;33.67;;
15342;SDS011;7771;48.478;8.936;2022-12-18T09:59:23;76.63;;;34.47;;
15342;SDS011;7771;48.478;8.936;2022-12-18T10:01:49;74.70;;;34.30;;
15342;SDS011;7771;48.478;8.936;2022-12-18T10:04:17;86.33;;;36.30;;
15342;SDS011;7771;48.478;8.936;2022-12-18T10:06:46;74.13;;;32.47;;
15342;SDS011;7771;48.478;8.936;2022-12-18T10:09:23;83.30;;;37.20;;
15342;SDS011;7771;48.478;8.936;2022-12-18T10:14:34;77.67;;;36.30;;
15342;SDS011;7771;48.478;8.936;2022-12-18T10:17:07;82.07;;;36.23;;
15342;SDS011;7771;48.478;8.936;2022-12-18T10:19:36;85.97;;;39.97;;
15342;SDS011;7771;48.478;8.936;2022-12-18T10:22:11;81.87;;;38.67;;
15342;SDS011;7771;48.478;8.936;2022-12-18T10:27:23;90.70;;;37.60;;
15342;SDS011;7771;48.478;8.936;2022-12-18T10:29:49;75.33;;;34.27;;
15342;SDS011;7771;48.478;8.936;2022-12-18T10:32:17;74.30;;;33.67;;
15342;SDS011;7771;48.478;8.936;2022-12-18T10:34:45;83.83;;;38.70;;
15342;SDS011;7771;48.478;8.936;2022-12-18T10:37:15;64.50;;;30.20;;
15342;SDS011;7771;48.478;8.936;2022-12-18T10:39:40;69.03;;;30.67;;
15342;SDS011;7771;48.478;8.936;2022-12-18T10:42:10;59.53;;;31.77;;
15342;SDS011;7771;48.478;8.936;2022-12-18T10:44:36;59.53;;;30.70;;
15342;SDS011;7771;48.478;8.936;2022-12-18T10:47:03;65.10;;;29.00;;
15342;SDS011;7771;48.478;8.936;2022-12-18T10:49:31;69.47;;;30.90;;
15342;SDS011;7771;48.478;8.936;2022-12-18T10:52:12;60.37;;;30.50;;
15342;SDS011;7771;48.478;8.936;2022-12-18T10:54:34;71.33;;;33.07;;
15342;SDS011;7771;48.478;8.936;2022-12-18T10:59:49;72.67;;;33.30;;
15342;SDS011;7771;48.478;8.936;2022-12-18T11:02:25;67.00;;;34.10;;
15342;SDS011;7771;48.478;8.936;2022-12-18T11:04:50;69.47;;;33.40;;
15342;SDS011;7771;48.478;8.936;2022-12-18T11:07:15;66.40;;;33.37;;
15342;SDS011;7771;48.478;8.936;2022-12-18T11:09:42;66.80;;;31.47;;
15342;SDS011;7771;48.478;8.936;2022-12-18T11:12:18;63.23;;;32.83;;
15342;SDS011;7771;48.478;8.936;2022-12-18T11:14:47;71.70;;;32.53;;
15342;SDS011;7771;48.478;8.936;2022-12-18T11:17:19;61.83;;;31.40;;
15342;SDS011;7771;48.478;8.936;2022-12-18T11:19:45;62.20;;;30.43;;
15342;SDS011;7771;48.478;8.936;2022-12-18T11:22:19;60.77;;;31.03;;
15342;SDS011;7771;48.478;8.936;2022-12-18T11:24:52;69.07;;;32.77;;
15342;SDS011;7771;48.478;8.936;2022-12-18T11:27:18;61.80;;;31.10;;
15342;SDS011;7771;48.478;8.936;2022-12-18T11:29:46;66.47;;;33.47;;
15342;SDS011;7771;48.478;8.936;2022-12-18T11:32:24;68.87;;;35.73;;
15342;SDS011;7771;48.478;8.936;2022-12-18T11:34:59;69.57;;;32.53;;
15342;SDS011;7771;48.478;8.936;2022-12-18T11:37:31;67.13;;;33.63;;
15342;SDS011;7771;48.478;8.936;2022-12-18T11:39:59;68.13;;;34.47;;
15342;SDS011;7771;48.478;8.936;2022-12-18T11:42:33;66.67;;;34.47;;
15342;SDS011;7771;48.478;8.936;2022-12-18T11:45:03;69.10;;;34.90;;
15342;SDS011;7771;48.478;8.936;2022-12-18T11:47:34;70.20;;;34.13;;
15342;SDS011;7771;48.478;8.936;2022-12-18T11:50:01;81.80;;;37.63;;
15342;SDS011;7771;48.478;8.936;2022-12-18T11:52:31;71.77;;;35.20;;
15342;SDS011;7771;48.478;8.936;2022-12-18T11:55:07;71.10;;;33.13;;
15342;SDS011;7771;48.478;8.936;2022-12-18T11:57:36;70.73;;;35.40;;
15342;SDS011;7771;48.478;8.936;2022-12-18T12:02:59;70.20;;;33.73;;
15342;SDS011;7771;48.478;8.936;2022-12-18T12:05:40;67.33;;;35.90;;
15342;SDS011;7771;48.478;8.936;2022-12-18T12:11:07;69.03;;;34.83;;
15342;SDS011;7771;48.478;8.936;2022-12-18T12:13:35;71.30;;;37.63;;
15342;SDS011;7771;48.478;8.936;2022-12-18T12:16:06;76.67;;;42.77;;
15342;SDS011;7771;48.478;8.936;2022-12-18T12:18:53;72.67;;;40.50;;
15342;SDS011;7771;48.478;8.936;2022-12-18T12:21:34;80.90;;;40.20;;
15342;SDS011;7771;48.478;8.936;2022-12-18T12:24:19;77.30;;;36.47;;
15342;SDS011;7771;48.478;8.936;2022-12-18T12:26:57;70.83;;;35.63;;
15342;SDS011;7771;48.478;8.936;2022-12-18T12:29:24;72.10;;;38.07;;
15342;SDS011;7771;48.478;8.936;2022-12-18T12:31:58;72.27;;;37.17;;
15342;SDS011;7771;48.478;8.936;2022-12-18T12:34:25;69.17;;;37.77;;
15342;SDS011;7771;48.478;8.936;2022-12-18T12:36:56;68.70;;;37.23;;
15342;SDS011;7771;48.478;8.936;2022-12-18T12:39:29;89.57;;;40.10;;
15342;SDS011;7771;48.478;8.936;2022-12-18T12:41:58;80.63;;;40.00;;
15342;SDS011;7771;48.478;8.936;2022-12-18T12:44:32;91.87;;;41.53;;
15342;SDS011;7771;48.478;8.936;2022-12-18T12:47:08;87.53;;;41.83;;
15342;SDS011;7771;48.478;8.936;2022-12-18T12:49:32;81.40;;;40.13;;
15342;SDS011;7771;48.478;8.936;2022-12-18T12:52:15;83.33;;;40.80;;
15342;SDS011;7771;48.478;8.936;2022-12-18T12:54:41;79.70;;;41.33;;
15342;SDS011;7771;48.478;8.936;2022-12-18T12:57:12;77.70;;;40.40;;
15342;SDS011;7771;48.478;8.936;2022-12-18T12:59:46;72.73;;;38.77;;
15342;SDS011;7771;48.478;8.936;2022-12-18T13:07:31;84.70;;;42.17;;
15342;SDS011;7771;48.478;8.936;2022-12-18T13:12:34;69.10;;;39.47;;
15342;SDS011;7771;48.478;8.936;2022-12-18T13:15:13;78.50;;;39.73;;
15342;SDS011;7771;48.478;8.936;2022-12-18T13:17:39;81.33;;;42.20;;
15342;SDS011;7771;48.478;8.936;2022-12-18T13:20:07;85.57;;;44.07;;
15342;SDS011;7771;48.478;8.936;2022-12-18T13:22:35;77.97;;;41.30;;
15342;SDS011;7771;48.478;8.936;2022-12-18T13:25:01;83.43;;;45.27;;
15342;SDS011;7771;48.478;8.936;2022-12-18T13:27:46;84.80;;;45.80;;
15342;SDS011;7771;48.478;8.936;2022-12-18T13:35:41;68.57;;;37.50;;
15342;SDS011;7771;48.478;8.936;2022-12-18T13:41:01;74.67;;;36.83;;
15342;SDS011;7771;48.478;8.936;2022-12-18T13:43:31;70.70;;;35.37;;
15342;SDS011;7771;48.478;8.936;2022-12-18T13:46:04;73.80;;;35.53;;
15342;SDS011;7771;48.478;8.936;2022-12-18T13:48:34;73.40;;;36.20;;
15342;SDS011;7771;48.478;8.936;2022-12-18T13:51:00;79.83;;;38.93;;
15342;SDS011;7771;48.478;8.936;2022-12-18T13:53:29;78.83;;;36.63;;
15342;SDS011;7771;48.478;8.936;2022-12-18T13:55:54;74.30;;;36.80;;
15342;SDS011;7771;48.478;8.936;2022-12-18T13:58:21;72.03;;;35.10;;
15342;SDS011;7771;48.478;8.936;2022-12-18T14:00:48;71.17;;;34.77;;
15342;SDS011;7771;48.478;8.936;2022-12-18T14:03:18;64.40;;;33.33;;
15342;SDS011;7771;48.478;8.936;2022-12-18T14:05:44;73.60;;;34.53;;
15342;SDS011;7771;48.478;8.936;2022-12-18T14:08:13;67.87;;;33.70;;
15342;SDS011;7771;48.478;8.936;2022-12-18T14:10:41;72.73;;;35.27;;
15342;SDS011;7771;48.478;8.936;2022-12-18T14:13:09;67.73;;;36.30;;
15342;SDS011;7771;48.478;8.936;2022-12-18T14:15:36;71.47;;;34.47;;
15342;SDS011;7771;48.478;8.936;2022-12-18T14:18:03;72.77;;;38.37;;
15342;SDS011;7771;48.478;8.936;2022-12-18T14:20:30;75.00;;;40.80;;
15342;SDS011;7771;48.478;8.936;2022-12-18T14:22:56;75.97;;;39.20;;
15342;SDS011;7771;48.478;8.936;2022-12-18T14:25:24;73.10;;;39.67;;
15342;SDS011;7771;48.478;8.936;2022-12-18T14:27:51;77.93;;;37.90;;
15342;SDS011;7771;48.478;8.936;2022-12-18T14:30:25;71.37;;;36.60;;
15342;SDS011;7771;48.478;8.936;2022-12-18T14:35:29;82.83;;;42.13;;
15342;SDS011;7771;48.478;8.936;2022-12-18T14:40:34;89.03;;;42.53;;
15342;SDS011;7771;48.478;8.936;2022-12-18T14:43:00;80.50;;;42.70;;
15342;SDS011;7771;48.478;8.936;2022-12-18T14:45:35;94.17;;;47.93;;
15342;SDS011;7771;48.478;8.936;2022-12-18T14:48:05;87.23;;;44.10;;
15342;SDS011;7771;48.478;8.936;2022-12-18T14:50:29;93.27;;;46.60;;
15342;SDS011;7771;48.478;8.936;2022-12-18T14:52:56;82.57;;;42.27;;
15342;SDS011;7771;48.478;8.936;2022-12-18T14:55:24;79.20;;;39.83;;
15342;SDS011;7771;48.478;8.936;2022-12-18T14:57:51;85.63;;;42.83;;
15342;SDS011;7771;48.478;8.936;2022-12-18T15:00:18;78.10;;;39.70;;
15342;SDS011;7771;48.478;8.936;2022-12-18T15:02:45;87.27;;;40.23;;
15342;SDS011;7771;48.478;8.936;2022-12-18T15:05:20;83.37;;;40.60;;
15342;SDS011;7771;48.478;8.936;2022-12-18T15:07:51;78.10;;;39.63;;
15342;SDS011;7771;48.478;8.936;2022-12-18T15:10:19;75.87;;;40.10;;
15342;SDS011;7771;48.478;8.936;2022-12-18T15:12:47;82.83;;;42.80;;
15342;SDS011;7771;48.478;8.936;2022-12-18T15:17:46;87.03;;;45.87;;
15342;SDS011;7771;48.478;8.936;2022-12-18T15:20:14;93.33;;;46.97;;
15342;SDS011;7771;48.478;8.936;2022-12-18T15:22:40;92.50;;;47.53;;
15342;SDS011;7771;48.478;8.936;2022-12-18T15:27:47;87.13;;;44.83;;
15342;SDS011;7771;48.478;8.936;2022-12-18T15:30:18;97.27;;;47.47;;
15342;SDS011;7771;48.478;8.936;2022-12-18T15:32:45;93.67;;;48.27;;
15342;SDS011;7771;48.478;8.936;2022-12-18T15:35:15;84.90;;;45.27;;